Time;durP1;ratioP1;P1;durP2;ratioP2;P2;SDS_P1;SDS_P2;PMS_P1;PMS_P2;Temp;Humidity;BMP_temperature;BMP_pressure;BME280_temperature;BME280_humidity;BME280_pressure;Samples;Min_cycle;Max_cycle;Signal;HPM_P1;HPM_P2
2024/01/14 00:00:53;;;;;;;8.85;4.63;;;;;;;-4.09;90.96;94551.44;5088903;28;20234;-72
2024/01/14 00:03:20;;;;;;;7.20;3.65;;;;;;;-4.10;91.13;94544.56;5090312;28;20666;-72
2024/01/14 00:05:47;;;;;;;6.70;4.43;;;;;;;-3.86;92.38;94551.31;5086225;28;20198;-72
2024/01/14 00:08:15;;;;;;;7.35;3.47;;;;;;;-3.68;91.46;94548.41;5087601;28;20206;-74
2024/01/14 00:10:42;;;;;;;7.28;2.58;;;;;;;-3.72;89.79;94552.63;5085870;28;20198;-73
2024/01/14 00:13:09;;;;;;;8.55;3.63;;;;;;;-3.78;90.06;94547.47;5089000;28;20207;-72
2024/01/14 00:15:36;;;;;;;7.70;2.70;;;;;;;-3.89;89.27;94549.16;5086786;28;20198;-72
2024/01/14 00:18:03;;;;;;;4.97;3.20;;;;;;;-4.01;89.75;94537.84;5086228;28;20210;-72
2024/01/14 00:20:29;;;;;;;7.70;4.05;;;;;;;-3.94;90.67;94551.69;5088273;28;20251;-72
2024/01/14 00:22:56;;;;;;;7.97;3.55;;;;;;;-4.16;91.01;94541.03;5087618;28;20257;-72
2024/01/14 00:25:24;;;;;;;14.57;5.63;;;;;;;-4.39;90.38;94530.59;5087593;28;20252;-72
2024/01/14 00:27:51;;;;;;;4.95;3.83;;;;;;;-4.29;93.05;94536.03;5085611;28;20566;-72
2024/01/14 00:30:18;;;;;;;5.85;2.70;;;;;;;-4.17;91.61;94525.41;5084865;28;20217;-73
2024/01/14 00:32:45;;;;;;;5.38;3.72;;;;;;;-4.39;92.29;94539.31;5088490;28;20202;-73
2024/01/14 00:35:11;;;;;;;3.53;2.05;;;;;;;-4.28;92.86;94523.63;5084732;28;20225;-71
2024/01/14 00:37:38;;;;;;;5.90;3.50;;;;;;;-4.06;93.53;94524.53;5087583;28;20462;-72
2024/01/14 00:40:07;;;;;;;7.55;3.65;;;;;;;-4.15;93.84;94525.97;5085989;28;20214;-72
2024/01/14 00:42:35;;;;;;;5.35;3.92;;;;;;;-4.12;92.81;94530.78;5086571;28;20222;-72
2024/01/14 00:45:02;;;;;;;3.53;2.20;;;;;;;-4.23;91.82;94534.28;5084899;28;20607;-72
2024/01/14 00:47:30;;;;;;;4.70;2.80;;;;;;;-4.11;91.65;94527.91;5085772;28;20240;-71
2024/01/14 00:49:56;;;;;;;2.03;1.85;;;;;;;-4.09;90.96;94532.94;5086122;28;20305;-72
2024/01/14 00:52:24;;;;;;;13.77;4.65;;;;;;;-4.10;90.96;94534.00;5086601;28;20247;-73
2024/01/14 00:54:51;;;;;;;4.97;2.55;;;;;;;-3.96;89.44;94528.13;5085776;28;20198;-74
2024/01/14 00:57:17;;;;;;;6.88;3.40;;;;;;;-4.09;89.23;94527.66;5087691;28;20248;-71
2024/01/14 00:59:46;;;;;;;3.97;1.95;;;;;;;-3.79;89.79;94525.50;5075072;28;20238;-73
2024/01/14 01:02:12;;;;;;;10.75;3.70;;;;;;;-3.69;89.64;94515.06;5067268;28;20590;-73
2024/01/14 01:04:39;;;;;;;8.57;3.67;;;;;;;-3.94;89.34;94522.59;5067656;28;20214;-72
2024/01/14 01:07:06;;;;;;;4.13;2.38;;;;;;;-3.97;89.47;94517.81;5066606;28;20234;-72
2024/01/14 01:09:33;;;;;;;4.65;2.35;;;;;;;-3.97;88.43;94517.81;5066116;28;20290;-72
2024/01/14 01:12:01;;;;;;;4.38;3.55;;;;;;;-4.17;88.87;94506.91;5067507;28;20194;-72
2024/01/14 01:14:28;;;;;;;9.07;2.38;;;;;;;-4.17;91.49;94514.81;5067274;28;20533;-71
2024/01/14 01:16:56;;;;;;;2.67;2.35;;;;;;;-4.25;89.48;94499.38;5062975;28;20665;-72
2024/01/14 01:19:23;;;;;;;8.07;3.13;;;;;;;-4.23;91.33;94500.72;5065760;28;20630;-72
2024/01/14 01:21:49;;;;;;;2.80;2.08;;;;;;;-4.16;91.63;94503.22;5066557;28;20268;-72
2024/01/14 01:24:16;;;;;;;5.97;3.30;;;;;;;-4.31;90.82;94491.34;5063579;28;20265;-74
2024/01/14 01:26:43;;;;;;;6.43;2.60;;;;;;;-4.30;91.17;94487.66;5063677;28;20199;-74
2024/01/14 01:29:10;;;;;;;5.45;3.03;;;;;;;-4.14;91.70;94493.19;5064612;28;20204;-75
2024/01/14 01:31:36;;;;;;;4.10;2.20;;;;;;;-3.94;91.16;94483.72;5066182;28;20199;-74
2024/01/14 01:34:04;;;;;;;8.38;4.00;;;;;;;-3.99;90.77;94474.94;5063277;28;20208;-74
2024/01/14 01:36:31;;;;;;;5.95;3.20;;;;;;;-3.94;90.61;94469.69;5068632;28;20540;-74
2024/01/14 01:38:58;;;;;;;6.47;3.20;;;;;;;-3.94;90.74;94475.00;5063740;28;20265;-73
2024/01/14 01:41:26;;;;;;;5.70;2.55;;;;;;;-4.00;90.88;94478.63;5065364;28;20234;-74
2024/01/14 01:43:52;;;;;;;5.25;2.40;;;;;;;-4.00;89.95;94470.69;5062435;28;20218;-75
2024/01/14 01:46:19;;;;;;;6.13;2.65;;;;;;;-4.03;89.79;94469.31;5066718;28;20206;-72
2024/01/14 01:48:46;;;;;;;3.45;2.10;;;;;;;-4.18;90.15;94465.63;5065730;28;20207;-73
2024/01/14 01:51:15;;;;;;;0.20;0.20;;;;;;;-4.24;89.46;94470.06;5064198;28;20732;-73
2024/01/14 01:53:43;;;;;;;4.22;2.38;;;;;;;-4.43;90.20;94469.47;5063408;28;20203;-74
2024/01/14 01:56:11;;;;;;;4.70;2.97;;;;;;;-4.36;91.41;94472.72;5063583;28;20684;-74
2024/01/14 01:58:39;;;;;;;5.28;2.45;;;;;;;-4.26;90.54;94466.03;5068085;28;20215;-74
2024/01/14 02:01:06;;;;;;;1.60;1.35;;;;;;;-4.25;88.94;94462.34;5082062;28;20580;-74
2024/01/14 02:03:34;;;;;;;5.20;1.15;;;;;;;-4.15;90.46;94457.22;5084147;28;20582;-73
2024/01/14 02:06:02;;;;;;;5.18;2.58;;;;;;;-4.18;89.72;94447.13;5085769;28;20211;-74
2024/01/14 02:08:31;;;;;;;4.55;2.85;;;;;;;-4.25;89.57;94449.13;5084714;28;20206;-72
2024/01/14 02:10:58;;;;;;;5.68;2.38;;;;;;;-4.18;89.93;94445.28;5082550;28;20207;-73
2024/01/14 02:13:25;;;;;;;5.47;2.42;;;;;;;-4.27;90.37;94453.84;5085189;28;20195;-73
2024/01/14 02:15:51;;;;;;;2.00;1.45;;;;;;;-4.32;90.35;94446.63;5084265;28;20207;-72
2024/01/14 02:18:18;;;;;;;4.32;3.20;;;;;;;-4.28;89.87;94457.53;5082613;28;20217;-73
2024/01/14 02:20:45;;;;;;;4.32;1.35;;;;;;;-4.30;89.41;94457.78;5087594;28;20248;-74
2024/01/14 02:23:14;;;;;;;3.88;2.10;;;;;;;-4.46;90.67;94462.00;5088760;28;20648;-72
2024/01/14 02:25:42;;;;;;;8.05;4.05;;;;;;;-4.14;92.13;94453.53;5081944;28;20679;-72
2024/01/14 02:28:09;;;;;;;8.73;2.97;;;;;;;-4.09;90.49;94457.03;5085983;28;20202;-73
2024/01/14 02:30:37;;;;;;;5.90;2.60;;;;;;;-4.03;89.51;94442.06;5088174;28;20202;-72
2024/01/14 02:33:04;;;;;;;9.05;2.00;;;;;;;-4.14;89.86;94448.25;5083524;28;20203;-72
2024/01/14 02:35:31;;;;;;;4.18;2.22;;;;;;;-4.27;90.92;94453.84;5086460;28;20202;-72
2024/01/14 02:37:58;;;;;;;4.43;1.85;;;;;;;-4.14;90.24;94448.25;5085261;28;20210;-73
2024/01/14 02:40:25;;;;;;;4.13;2.17;;;;;;;-4.14;89.91;94442.97;5085060;28;20613;-71
2024/01/14 02:42:53;;;;;;;4.82;1.75;;;;;;;-4.15;89.92;94441.34;5083661;28;20225;-73
2024/01/14 02:45:20;;;;;;;12.13;2.80;;;;;;;-4.27;91.26;94448.56;5083958;28;20218;-73
2024/01/14 02:47:46;;;;;;;4.78;2.85;;;;;;;-4.22;90.24;94440.69;5087187;28;20659;-72
2024/01/14 02:50:13;;;;;;;4.57;2.25;;;;;;;-4.06;89.84;94429.31;5081600;28;20284;-73
2024/01/14 02:52:40;;;;;;;7.25;2.10;;;;;;;-4.15;89.13;94438.72;5085118;28;20252;-73
2024/01/14 02:55:07;;;;;;;9.35;2.08;;;;;;;-4.22;88.42;94430.91;5082630;28;20608;-73
2024/01/14 02:57:34;;;;;;;10.45;3.92;;;;;;;-4.18;89.38;94425.97;5087685;28;20293;-74
2024/01/14 03:00:02;;;;;;;0.50;0.50;;;;;;;-4.39;90.41;94428.31;5084167;28;20238;-74
2024/01/14 03:02:29;;;;;;;2.75;1.80;;;;;;;-4.37;90.20;94434.13;5084533;28;20291;-74
2024/01/14 03:04:55;;;;;;;4.88;2.10;;;;;;;-4.51;90.88;94438.13;5084707;28;20563;-73
2024/01/14 03:07:22;;;;;;;3.13;1.80;;;;;;;-4.64;89.35;94438.41;5085000;28;20206;-74
2024/01/14 03:09:49;;;;;;;3.58;2.38;;;;;;;-4.78;91.13;94437.13;5081797;28;20233;-73
2024/01/14 03:12:16;;;;;;;2.60;2.40;;;;;;;-4.59;90.75;94440.38;5082221;28;20289;-73
2024/01/14 03:14:42;;;;;;;2.88;1.98;;;;;;;-4.35;89.96;94434.69;5084522;28;20202;-72
2024/01/14 03:17:11;;;;;;;5.85;2.53;;;;;;;-4.31;88.97;94430.53;5083451;28;20215;-73
2024/01/14 03:19:37;;;;;;;2.38;1.55;;;;;;;-4.29;88.70;94414.44;5086759;28;20213;-73
2024/01/14 03:22:04;;;;;;;3.00;2.28;;;;;;;-4.63;89.74;94421.53;5088517;28;20234;-72
2024/01/14 03:24:31;;;;;;;3.85;2.47;;;;;;;-4.39;89.74;94425.66;5087617;28;20206;-73
2024/01/14 03:26:58;;;;;;;2.88;1.63;;;;;;;-4.56;88.84;94419.56;5086864;28;20675;-73
2024/01/14 03:29:24;;;;;;;3.17;2.08;;;;;;;-4.68;89.54;94424.09;5089951;28;20285;-72
2024/01/14 03:31:51;;;;;;;8.20;3.85;;;;;;;-4.84;90.36;94423.03;5089561;28;20205;-73
2024/01/14 03:34:19;;;;;;;2.63;1.83;;;;;;;-4.69;90.66;94414.56;5086712;28;20202;-72
2024/01/14 03:36:46;;;;;;;5.60;3.17;;;;;;;-4.66;90.95;94414.09;5089611;28;20612;-73
2024/01/14 03:39:13;;;;;;;6.90;3.08;;;;;;;-4.49;90.33;94414.91;5091249;28;20203;-73
2024/01/14 03:41:40;;;;;;;1.40;1.30;;;;;;;-4.60;90.46;94415.78;5088690;28;20206;-73
2024/01/14 03:44:06;;;;;;;3.13;2.08;;;;;;;-4.57;90.75;94438.28;5093594;28;20209;-74
2024/01/14 03:46:33;;;;;;;4.53;2.88;;;;;;;-4.80;89.47;94429.47;5086457;28;20576;-73
2024/01/14 03:49:00;;;;;;;3.10;1.88;;;;;;;-4.58;89.18;94428.75;5090289;28;20213;-72
2024/01/14 03:51:28;;;;;;;6.30;2.85;;;;;;;-4.54;88.52;94425.41;5084603;28;20209;-72
2024/01/14 03:53:55;;;;;;;2.50;1.80;;;;;;;-4.72;89.88;94430.91;5086240;28;20202;-72
2024/01/14 03:56:21;;;;;;;4.95;2.58;;;;;;;-5.17;89.68;94439.56;5087197;28;20355;-71
2024/01/14 03:58:48;;;;;;;4.45;3.13;;;;;;;-5.16;92.27;94443.03;5087560;28;20283;-72
2024/01/14 04:01:18;;;;;;;3.85;2.10;;;;;;;-5.21;91.37;94458.78;5088331;28;20677;-72
2024/01/14 04:03:45;;;;;;;7.30;3.05;;;;;;;-5.51;92.66;94453.69;5091351;28;20563;-73
2024/01/14 04:06:13;;;;;;;7.47;2.97;;;;;;;-5.65;93.31;94462.88;5089575;28;20298;-72
2024/01/14 04:08:41;;;;;;;10.18;3.88;;;;;;;-5.44;95.10;94455.13;5088462;28;20220;-72
2024/01/14 04:11:08;;;;;;;6.43;3.42;;;;;;;-5.05;94.30;94448.25;5089004;28;20256;-70
2024/01/14 04:13:35;;;;;;;2.53;2.08;;;;;;;-4.83;92.73;94447.59;5087930;28;20206;-72
2024/01/14 04:16:01;;;;;;;9.23;2.72;;;;;;;-4.76;91.36;94456.19;5086581;28;20210;-73
2024/01/14 04:18:29;;;;;;;13.02;3.35;;;;;;;-4.91;91.18;94445.31;5090104;28;20206;-72
2024/01/14 04:20:55;;;;;;;4.28;2.50;;;;;;;-4.83;91.48;94442.31;5085877;28;20247;-73
2024/01/14 04:23:22;;;;;;;4.93;3.15;;;;;;;-4.98;91.48;94437.56;5087171;28;20637;-72
2024/01/14 04:25:50;;;;;;;3.10;2.17;;;;;;;-4.85;92.42;94425.91;5085020;28;20613;-72
2024/01/14 04:28:17;;;;;;;6.05;2.72;;;;;;;-5.09;91.08;94426.03;5087976;28;20198;-71
2024/01/14 04:30:44;;;;;;;3.00;2.45;;;;;;;-5.00;92.62;94434.34;5091685;28;20202;-71
2024/01/14 04:33:12;;;;;;;2.80;1.73;;;;;;;-5.03;91.36;94430.34;5087049;28;20576;-73
2024/01/14 04:35:38;;;;;;;6.90;3.05;;;;;;;-4.85;92.37;94421.44;5086577;28;20203;-72
2024/01/14 04:38:05;;;;;;;6.18;2.72;;;;;;;-4.88;91.27;94423.72;5088971;28;20803;-73
2024/01/14 04:40:32;;;;;;;6.85;3.10;;;;;;;-4.92;92.01;94433.19;5084227;28;20222;-72
2024/01/14 04:43:00;;;;;;;5.30;2.53;;;;;;;-5.27;91.04;94423.56;5085256;28;20219;-73
2024/01/14 04:45:27;;;;;;;8.13;3.42;;;;;;;-5.18;93.64;94422.13;5088487;28;20621;-72
2024/01/14 04:47:54;;;;;;;2.50;1.90;;;;;;;-5.32;92.62;94428.72;5089727;28;20236;-73
2024/01/14 04:50:20;;;;;;;5.38;3.28;;;;;;;-5.48;93.41;94437.38;5084737;28;20225;-73
2024/01/14 04:52:47;;;;;;;3.83;2.72;;;;;;;-5.27;94.34;94433.31;5087368;28;20593;-71
2024/01/14 04:55:14;;;;;;;5.03;2.67;;;;;;;-4.95;93.09;94431.81;5087791;28;20583;-73
2024/01/14 04:57:41;;;;;;;4.68;2.72;;;;;;;-4.73;92.14;94424.00;5086733;28;20202;-74
2024/01/14 05:00:12;;;;;;;4.35;1.98;;;;;;;-4.72;90.49;94428.25;5085222;28;20238;-74
2024/01/14 05:02:39;;;;;;;8.07;3.60;;;;;;;-4.79;90.55;94433.69;5090919;28;20224;-74
2024/01/14 05:05:06;;;;;;;2.25;1.48;;;;;;;-4.74;88.33;94440.91;5086215;28;20267;-74
2024/01/14 05:07:33;;;;;;;3.15;2.55;;;;;;;-4.86;88.68;94445.44;5083605;28;20206;-72
2024/01/14 05:09:59;;;;;;;5.10;3.35;;;;;;;-4.89;89.49;94440.63;5085119;28;20206;-72
2024/01/14 05:12:26;;;;;;;6.03;2.55;;;;;;;-4.99;89.73;94435.97;5088216;28;20194;-72
2024/01/14 05:14:53;;;;;;;11.85;2.22;;;;;;;-5.12;90.63;94437.03;5086193;28;20218;-72
2024/01/14 05:17:21;;;;;;;5.55;2.63;;;;;;;-5.07;89.74;94431.88;5083563;28;20313;-71
2024/01/14 05:19:48;;;;;;;5.40;2.85;;;;;;;-5.05;89.98;94431.59;5084286;28;20214;-72
2024/01/14 05:22:15;;;;;;;3.47;2.42;;;;;;;-5.10;89.65;94437.63;5085825;28;20302;-71
2024/01/14 05:24:42;;;;;;;2.67;2.10;;;;;;;-5.17;89.23;94418.47;5086372;28;20205;-71
2024/01/14 05:27:10;;;;;;;5.03;2.45;;;;;;;-5.04;90.14;94434.00;5083439;28;20194;-71
2024/01/14 05:29:40;;;;;;;4.72;2.20;;;;;;;-4.99;88.64;94414.03;5085962;28;20289;-72
2024/01/14 05:32:08;;;;;;;2.53;1.27;;;;;;;-5.02;88.76;94421.38;5086022;28;20556;-72
2024/01/14 05:34:36;;;;;;;5.97;2.28;;;;;;;-4.95;90.56;94425.72;5084811;28;20206;-73
2024/01/14 05:37:03;;;;;;;3.75;1.42;;;;;;;-5.03;91.72;94419.78;5086553;28;20215;-72
2024/01/14 05:39:30;;;;;;;8.63;2.28;;;;;;;-4.87;91.95;94423.50;5088184;28;20210;-73
2024/01/14 05:41:57;;;;;;;1.85;1.60;;;;;;;-4.98;89.74;94423.56;5081552;28;20378;-72
2024/01/14 05:44:23;;;;;;;4.00;2.42;;;;;;;-5.09;90.88;94430.50;5080114;28;20218;-72
2024/01/14 05:46:50;;;;;;;4.28;2.33;;;;;;;-5.08;91.12;94427.63;5080309;28;20311;-73
2024/01/14 05:49:17;;;;;;;4.82;2.05;;;;;;;-5.24;91.68;94417.81;5090869;28;20230;-73
2024/01/14 05:51:46;;;;;;;2.67;1.77;;;;;;;-5.06;91.96;94417.59;5092343;28;20214;-72
2024/01/14 05:54:13;;;;;;;3.92;2.17;;;;;;;-4.78;90.77;94429.19;5085245;28;20203;-72
2024/01/14 05:56:40;;;;;;;2.47;2.22;;;;;;;-4.59;90.54;94432.44;5085463;28;20252;-71
2024/01/14 05:59:06;;;;;;;3.75;2.47;;;;;;;-4.60;88.32;94423.72;5092103;28;20210;-71
2024/01/14 06:01:33;;;;;;;4.50;2.95;;;;;;;-4.70;88.06;94424.34;5092535;28;20190;-72
2024/01/14 06:04:00;;;;;;;3.47;1.60;;;;;;;-4.50;88.19;94431.78;5077536;28;20234;-71
2024/01/14 06:06:27;;;;;;;4.85;2.08;;;;;;;-4.37;87.19;94417.47;5092047;28;20324;-72
2024/01/14 06:08:55;;;;;;;3.35;2.80;;;;;;;-4.44;87.85;94430.03;5092181;28;20560;-72
2024/01/14 06:11:22;;;;;;;2.60;1.75;;;;;;;-4.44;87.37;94417.63;5091920;28;20206;-72
2024/01/14 06:13:48;;;;;;;5.18;2.38;;;;;;;-4.22;87.91;94411.63;5091670;28;20264;-71
2024/01/14 06:16:15;;;;;;;3.05;2.20;;;;;;;-3.65;88.33;94402.38;5091864;28;20206;-73
2024/01/14 06:18:42;;;;;;;3.35;2.05;;;;;;;-2.97;86.79;94401.06;5091641;28;20214;-72
2024/01/14 06:21:09;;;;;;;3.67;2.03;;;;;;;-2.10;84.50;94393.91;5091886;28;20209;-72
2024/01/14 06:23:36;;;;;;;8.60;3.38;;;;;;;-1.56;81.17;94394.50;5090997;28;20237;-72
2024/01/14 06:26:05;;;;;;;4.93;2.42;;;;;;;-1.40;77.26;94392.72;5092178;28;20217;-74
2024/01/14 06:28:31;;;;;;;4.65;1.92;;;;;;;0.20;98.14;94389.78;5091677;28;20232;-74
2024/01/14 06:30:58;;;;;;;3.55;1.27;;;;;;;3.17;100.00;94387.16;5091060;28;20210;-71
2024/01/14 06:33:25;;;;;;;12.85;1.05;;;;;;;5.31;100.00;94369.13;5091700;28;20198;-70
2024/01/14 06:35:51;;;;;;;0.32;0.30;;;;;;;2.73;94.54;94372.16;5091004;28;20213;-74
2024/01/14 06:38:19;;;;;;;0.68;0.68;;;;;;;1.93;87.79;94379.88;5091994;28;20217;-74
2024/01/14 06:40:45;;;;;;;0.20;0.20;;;;;;;1.21;85.18;94384.13;5088929;28;20198;-76
2024/01/14 06:43:13;;;;;;;0.20;0.20;;;;;;;0.48;81.34;94391.84;5091633;28;20223;-72
2024/01/14 06:45:40;;;;;;;0.20;0.20;;;;;;;-0.14;80.19;94393.00;5091232;28;20210;-75
2024/01/14 06:48:07;;;;;;;0.28;0.28;;;;;;;-0.73;83.67;94388.16;5091572;28;20251;-75
2024/01/14 06:50:34;;;;;;;0.20;0.20;;;;;;;-0.89;84.73;94386.53;5091168;28;20230;-75
2024/01/14 06:53:03;;;;;;;0.50;0.50;;;;;;;-1.17;82.42;94387.75;5091473;28;20221;-74
2024/01/14 06:55:30;;;;;;;0.20;0.20;;;;;;;-1.18;84.90;94370.22;5093922;28;20237;-74
2024/01/14 06:57:56;;;;;;;0.30;0.30;;;;;;;-1.41;82.79;94385.81;5095381;28;20240;-74
2024/01/14 07:00:25;;;;;;;0.35;0.35;;;;;;;-1.47;83.43;94383.13;5087471;28;20294;-73
2024/01/14 07:02:52;;;;;;;0.17;0.17;;;;;;;-1.46;82.88;94374.09;5088401;28;20302;-73
2024/01/14 07:05:19;;;;;;;0.30;0.30;;;;;;;-1.67;83.65;94372.41;5087724;28;20293;-73
2024/01/14 07:07:45;;;;;;;0.55;0.55;;;;;;;-1.48;82.25;94381.50;5087244;28;20210;-73
2024/01/14 07:10:12;;;;;;;0.30;0.30;;;;;;;-1.48;82.19;94370.88;5089062;28;20209;-72
2024/01/14 07:12:39;;;;;;;0.88;0.88;;;;;;;-1.45;82.41;94375.69;5085726;28;20209;-73
2024/01/14 07:15:07;;;;;;;0.40;0.40;;;;;;;-1.09;80.66;94373.16;5082425;28;20223;-74
2024/01/14 07:17:36;;;;;;;0.20;0.20;;;;;;;-0.83;79.48;94366.88;5083988;28;20240;-74
2024/01/14 07:20:05;;;;;;;0.20;0.20;;;;;;;-1.00;79.82;94370.81;5087131;28;20537;-74
2024/01/14 07:22:32;;;;;;;0.30;0.30;;;;;;;-1.10;80.20;94372.38;5083536;28;20199;-73
2024/01/14 07:24:59;;;;;;;0.30;0.30;;;;;;;-0.87;79.63;94357.81;5088781;28;20442;-74
2024/01/14 07:27:26;;;;;;;0.52;0.52;;;;;;;-0.92;78.30;94368.44;5080227;28;20221;-75
2024/01/14 07:29:53;;;;;;;0.40;0.40;;;;;;;-1.76;78.34;94373.94;5085000;28;20198;-74
2024/01/14 07:32:20;;;;;;;0.50;0.50;;;;;;;-2.31;81.47;94388.41;5086098;28;20191;-74
2024/01/14 07:34:51;;;;;;;3.72;3.50;;;;;;;-2.51;82.26;94393.56;5088636;28;20605;-75
2024/01/14 07:37:18;;;;;;;0.40;0.40;;;;;;;-2.77;83.81;94399.69;5086096;28;20230;-73
2024/01/14 07:39:46;;;;;;;1.00;1.00;;;;;;;-2.68;85.05;94382.28;5086592;28;20214;-75
2024/01/14 07:42:13;;;;;;;1.48;1.38;;;;;;;-2.49;84.04;94396.78;5086676;28;20210;-74
2024/01/14 07:44:40;;;;;;;0.20;0.20;;;;;;;-2.27;86.18;94394.81;5086647;28;20791;-75
2024/01/14 07:47:07;;;;;;;0.85;0.85;;;;;;;-1.71;83.75;94381.13;5085160;28;20206;-73
2024/01/14 07:49:34;;;;;;;0.20;0.20;;;;;;;-1.29;82.84;94373.09;5082955;28;20226;-73
2024/01/14 07:52:05;;;;;;;0.28;0.28;;;;;;;-0.82;80.11;94365.78;5086648;28;20777;-74
2024/01/14 07:54:32;;;;;;;0.22;0.22;;;;;;;-0.55;78.73;94372.78;5079043;28;20199;-73
2024/01/14 07:56:59;;;;;;;3.60;0.80;;;;;;;-0.78;75.18;94368.72;5081207;28;20203;-75
2024/01/14 07:59:26;;;;;;;0.20;0.20;;;;;;;-0.99;74.62;94362.59;5085163;28;20234;-74
2024/01/14 08:01:53;;;;;;;0.30;0.30;;;;;;;-1.37;77.36;94363.00;5087476;28;20198;-74
2024/01/14 08:04:19;;;;;;;0.65;0.65;;;;;;;-1.73;79.17;94362.81;5087347;28;20624;-76
2024/01/14 08:06:46;;;;;;;0.38;0.38;;;;;;;-2.14;80.04;94372.38;5084482;28;20589;-76
2024/01/14 08:09:14;;;;;;;0.30;0.30;;;;;;;-2.01;80.45;94365.81;5089512;28;20591;-75
2024/01/14 08:11:41;;;;;;;0.63;0.63;;;;;;;-1.56;80.25;94358.13;5093671;28;20233;-78
2024/01/14 08:14:11;;;;;;;0.20;0.20;;;;;;;-1.62;79.62;94345.06;5092552;28;20244;-77
2024/01/14 08:16:37;;;;;;;0.30;0.30;;;;;;;-1.70;79.40;94341.06;5088821;28;20199;-77
2024/01/14 08:19:04;;;;;;;0.63;0.63;;;;;;;-1.79;78.30;94353.22;5088495;28;20564;-77
2024/01/14 08:21:31;;;;;;;0.20;0.20;;;;;;;-1.89;79.37;94353.16;5090439;28;20604;-76
2024/01/14 08:24:03;;;;;;;0.35;0.35;;;;;;;-1.29;88.36;94351.84;5085946;28;20703;-74
2024/01/14 08:26:31;;;;;;;0.22;0.22;;;;;;;-0.91;86.54;94351.41;5087086;28;20626;-78
2024/01/14 08:28:58;;;;;;;0.73;0.73;;;;;;;-1.21;79.57;94348.69;5085839;28;20202;-79
2024/01/14 08:31:28;;;;;;;0.20;0.20;;;;;;;-1.07;79.51;94360.41;5085975;28;20206;-79
2024/01/14 08:33:55;;;;;;;0.20;0.20;;;;;;;-0.82;78.83;94362.34;5087577;28;20203;-78
2024/01/14 08:36:22;;;;;;;0.93;0.93;;;;;;;-1.16;77.25;94362.00;5084712;28;20281;-79
2024/01/14 08:38:49;;;;;;;0.20;0.20;;;;;;;-0.89;78.22;94359.94;5079224;28;20238;-79
2024/01/14 08:41:16;;;;;;;0.20;0.20;;;;;;;-0.78;75.66;94374.84;5072818;28;20228;-78
2024/01/14 08:43:45;;;;;;;0.60;0.60;;;;;;;-0.78;74.44;94358.88;5080808;28;20240;-77
2024/01/14 08:46:12;;;;;;;0.43;0.43;;;;;;;-0.91;75.24;94351.41;5087490;28;20233;-80
2024/01/14 08:48:39;;;;;;;0.17;0.17;;;;;;;-1.03;77.10;94358.84;5084929;28;20207;-78
2024/01/14 08:51:09;;;;;;;0.25;0.25;;;;;;;-1.12;76.94;94349.78;5084463;28;20623;-80
2024/01/14 08:53:36;;;;;;;0.20;0.20;;;;;;;-0.75;77.34;94347.72;5087880;28;20256;-78
2024/01/14 08:56:03;;;;;;;0.82;0.82;;;;;;;-0.77;75.38;94349.84;5087550;28;20958;-80
2024/01/14 08:58:30;;;;;;;0.47;0.47;;;;;;;-0.75;75.27;94347.72;5083272;28;20255;-77
2024/01/14 09:00:58;;;;;;;1.35;0.90;;;;;;;-0.88;75.88;94340.28;5088331;28;20242;-80
2024/01/14 09:03:26;;;;;;;0.30;0.30;;;;;;;-0.90;75.99;94345.06;5085169;28;20230;-80
2024/01/14 09:05:54;;;;;;;0.68;0.68;;;;;;;-0.59;76.07;94332.59;5065935;28;20240;-79
2024/01/14 09:08:21;;;;;;;0.50;0.50;;;;;;;-0.51;74.41;94341.91;5086303;28;20289;-77
2024/01/14 09:10:48;;;;;;;0.20;0.20;;;;;;;-0.82;75.78;94344.50;5084360;28;20203;-77
2024/01/14 09:13:14;;;;;;;0.28;0.28;;;;;;;-0.66;74.58;94344.53;5090501;28;20380;-82
2024/01/14 09:15:41;;;;;;;0.57;0.57;;;;;;;-0.92;74.52;94341.84;5083553;28;20294;-79
2024/01/14 09:18:09;;;;;;;1.95;1.73;;;;;;;-0.85;75.02;94347.72;5085208;28;20255;-79
2024/01/14 09:20:36;;;;;;;4.55;3.72;;;;;;;-0.94;76.27;94343.97;5082585;28;20222;-80
2024/01/14 09:23:03;;;;;;;0.77;0.77;;;;;;;-0.88;76.73;94353.56;5083877;28;20636;-79
2024/01/14 09:25:30;;;;;;;0.30;0.30;;;;;;;-0.52;74.74;94337.63;5097388;28;20506;-82
2024/01/14 09:27:59;;;;;;;0.55;0.55;;;;;;;-0.20;73.17;94337.38;5087101;28;20203;-81
2024/01/14 09:30:26;;;;;;;0.60;0.60;;;;;;;-0.37;72.35;94342.97;5083808;28;20294;-81
2024/01/14 09:32:53;;;;;;;0.63;0.63;;;;;;;-0.02;72.58;94339.50;5080841;28;20206;-79
2024/01/14 09:35:21;;;;;;;0.90;0.90;;;;;;;0.04;71.72;94322.44;5082359;28;20198;-80
2024/01/14 09:37:48;;;;;;;0.73;0.73;;;;;;;0.02;71.65;94318.44;5085831;28;20202;-80
2024/01/14 09:40:16;;;;;;;1.15;1.13;;;;;;;0.21;70.88;94312.28;5084212;28;20211;-82
2024/01/14 09:42:45;;;;;;;0.22;0.22;;;;;;;0.66;70.28;94298.00;5088357;28;20535;-81
2024/01/14 09:45:13;;;;;;;0.60;0.60;;;;;;;0.88;70.81;94310.94;5084628;28;20215;-83
2024/01/14 09:47:42;;;;;;;0.45;0.45;;;;;;;1.02;67.87;94311.13;5085442;28;20210;-78
2024/01/14 09:50:10;;;;;;;0.93;0.93;;;;;;;1.06;66.79;94304.19;5086065;28;20218;-79
2024/01/14 09:52:46;;;;;;;0.20;0.20;;;;;;;1.75;67.05;94289.81;5083991;28;20283;-78
2024/01/14 09:55:13;;;;;;;0.63;0.63;;;;;;;2.17;66.27;94291.00;5083078;28;20206;-82
2024/01/14 09:57:42;;;;;;;0.20;0.20;;;;;;;2.45;64.42;94287.50;5065331;28;20198;-85
2024/01/14 10:00:10;;;;;;;0.38;0.38;;;;;;;1.84;63.90;94285.44;5088273;28;20269;-84
2024/01/14 10:02:37;;;;;;;0.90;0.80;;;;;;;2.29;66.26;94275.38;5089828;28;20206;-83
2024/01/14 10:05:07;;;;;;;0.20;0.20;;;;;;;2.83;64.90;94281.13;5081305;28;20628;-85
2024/01/14 10:07:46;;;;;;;0.20;0.20;;;;;;;3.16;62.46;94273.19;5085869;28;20203;-84
2024/01/14 10:10:13;;;;;;;0.90;0.90;;;;;;;2.76;62.60;94278.00;5090725;28;20228;-85
2024/01/14 10:12:39;;;;;;;2.20;1.98;;;;;;;2.22;62.18;94281.03;5084091;28;20561;-85
2024/01/14 10:15:07;;;;;;;0.57;0.57;;;;;;;1.71;64.32;94280.75;5090802;28;20625;-85
2024/01/14 10:17:34;;;;;;;0.40;0.40;;;;;;;1.76;64.62;94270.84;5088676;28;20199;-85
2024/01/14 10:20:01;;;;;;;0.20;0.20;;;;;;;2.19;65.90;94270.16;5088718;28;20600;-85
2024/01/14 10:22:28;;;;;;;0.22;0.22;;;;;;;1.97;66.14;94258.06;5093014;28;20202;-87
2024/01/14 10:24:59;;;;;;;0.88;0.85;;;;;;;2.78;65.63;94262.47;5094621;28;20234;-87
2024/01/14 10:27:27;;;;;;;0.93;0.73;;;;;;;2.84;63.93;94258.66;5087230;28;20267;-88
2024/01/14 10:29:55;;;;;;;4.28;1.58;;;;;;;2.27;63.27;94250.81;5093039;28;20215;-87
2024/01/14 10:32:21;;;;;;;0.35;0.35;;;;;;;2.65;64.89;94243.66;5092724;28;20244;-87
2024/01/14 10:34:48;;;;;;;0.75;0.75;;;;;;;2.83;65.30;94238.34;5094529;28;20214;-86
2024/01/14 10:37:19;;;;;;;3.63;1.88;;;;;;;3.29;65.24;94245.69;5092927;28;20297;-86
2024/01/14 10:39:49;;;;;;;0.90;0.90;;;;;;;3.67;64.24;94232.25;5080330;28;20194;-85
2024/01/14 10:42:17;;;;;;;0.70;0.70;;;;;;;4.10;59.95;94212.16;5092147;28;20206;-86
2024/01/14 10:44:44;;;;;;;1.48;1.38;;;;;;;2.97;60.09;94217.00;5092693;28;20226;-86
2024/01/14 10:47:14;;;;;;;0.40;0.40;;;;;;;2.34;61.17;94213.84;5091954;28;20206;-82
2024/01/14 10:49:43;;;;;;;0.43;0.43;;;;;;;1.83;65.21;94214.41;5094504;28;20234;-85
2024/01/14 10:52:43;;;;;;;0.25;0.25;;;;;;;1.68;64.29;94202.03;5096120;28;20273;-83
2024/01/14 10:55:21;;;;;;;0.55;0.55;;;;;;;1.86;65.29;94202.38;5037951;28;20208;-86
2024/01/14 10:57:53;;;;;;;0.73;0.73;;;;;;;2.32;65.28;94206.13;5036284;28;20203;-85
2024/01/14 11:00:20;;;;;;;0.32;0.32;;;;;;;2.53;64.87;94193.28;5052069;28;20678;-85
2024/01/14 11:02:47;;;;;;;0.68;0.68;;;;;;;3.01;64.76;94190.47;5051394;28;20208;-87
2024/01/14 11:05:19;;;;;;;0.20;0.20;;;;;;;3.51;60.36;94183.50;5053065;28;20239;-87
2024/01/14 11:07:47;;;;;;;16.35;1.75;;;;;;;3.59;61.05;94172.09;5054269;28;20208;-86
2024/01/14 11:10:14;;;;;;;0.40;0.40;;;;;;;3.31;59.49;94173.94;5055814;28;20204;-84
2024/01/14 11:13:02;;;;;;;0.20;0.20;;;;;;;3.17;60.55;94173.09;5055037;28;20225;-84
2024/01/14 11:15:38;;;;;;;0.20;0.20;;;;;;;2.15;64.10;94184.44;5060407;28;20207;-82
2024/01/14 11:18:11;;;;;;;0.50;0.50;;;;;;;2.34;62.38;94182.56;5077706;28;20312;-85
2024/01/14 11:20:41;;;;;;;1.05;1.05;;;;;;;2.69;61.97;94186.66;5073006;28;20207;-82
2024/01/14 11:23:08;;;;;;;0.47;0.47;;;;;;;3.03;60.82;94177.59;5074991;28;20218;-86
2024/01/14 11:25:38;;;;;;;0.35;0.35;;;;;;;3.28;61.35;94168.38;5074806;28;20227;-86
2024/01/14 11:28:07;;;;;;;0.45;0.38;;;;;;;3.71;60.41;94171.63;5071185;28;20203;-82
2024/01/14 11:30:55;;;;;;;3.65;2.28;;;;;;;3.54;59.25;94159.63;5072027;28;20573;-85
2024/01/14 11:33:29;;;;;;;0.60;0.60;;;;;;;3.79;59.38;94128.09;5071955;28;20577;-84
2024/01/14 11:35:56;;;;;;;0.40;0.40;;;;;;;3.40;59.05;94129.34;5071011;28;20203;-84